createdAt,value
2023-03-05T00:01:30.287Z,99748.78
2023-03-05T00:03:57.939Z,99745.47
2023-03-05T00:06:28.270Z,99741.78
2023-03-05T00:08:58.557Z,99751.03
2023-03-05T00:11:30.375Z,99739.00
2023-03-05T00:13:59.051Z,99739.00
2023-03-05T00:16:27.348Z,99721.56
2023-03-05T00:18:56.527Z,99740.38
2023-03-05T00:21:23.600Z,99727.91
2023-03-05T00:23:52.212Z,99726.53
2023-03-05T00:26:21.224Z,99724.16
2023-03-05T00:28:51.814Z,99723.69
2023-03-05T00:31:26.000Z,99706.16
2023-03-05T00:33:55.712Z,99719.75
2023-03-05T00:36:24.697Z,99729.13
2023-03-05T00:38:52.692Z,99734.44
2023-03-05T00:41:20.748Z,99721.13
2023-03-05T00:43:48.695Z,99713.97
2023-03-05T00:46:16.333Z,99678.22
2023-03-05T00:48:43.681Z,99701.47
2023-03-05T00:51:10.937Z,99675.69
2023-03-05T00:53:38.182Z,99714.56
2023-03-05T00:56:05.798Z,99700.78
2023-03-05T00:58:33.145Z,99683.81
2023-03-05T01:01:01.721Z,99704.72
2023-03-05T01:03:30.670Z,99694.97
2023-03-05T01:05:57.934Z,99705.25
2023-03-05T01:08:26.129Z,99690.78
2023-03-05T01:10:53.288Z,99684.09
2023-03-05T01:13:20.565Z,99684.47
2023-03-05T01:15:48.884Z,99700.00
2023-03-05T01:18:17.813Z,99687.56
2023-03-05T01:20:45.101Z,99683.94
2023-03-05T01:23:12.726Z,99684.72
2023-03-05T01:25:40.448Z,99688.72
2023-03-05T01:28:08.080Z,99686.25
2023-03-05T01:30:35.645Z,99686.53
2023-03-05T01:33:02.818Z,99712.28
2023-03-05T01:35:30.327Z,99693.38
2023-03-05T01:37:57.550Z,99681.19
2023-03-05T01:40:28.999Z,99707.75
2023-03-05T01:43:22.515Z,99695.38
2023-03-05T01:46:24.233Z,99700.03
2023-03-05T01:48:56.469Z,99699.72
2023-03-05T01:51:27.907Z,99698.28
2023-03-05T01:53:57.471Z,99687.19
2023-03-05T01:56:27.112Z,99656.09
2023-03-05T01:58:58.052Z,99676.06
2023-03-05T02:01:25.337Z,99686.13
2023-03-05T02:03:53.064Z,99670.44
2023-03-05T02:06:20.301Z,99658.19
2023-03-05T02:08:47.655Z,99662.91
2023-03-05T02:11:15.502Z,99681.53
2023-03-05T02:13:44.995Z,99672.63
2023-03-05T02:16:12.446Z,99649.66
2023-03-05T02:18:39.752Z,99663.59
2023-03-05T02:21:08.544Z,99678.66
2023-03-05T02:23:38.089Z,99681.72
2023-03-05T02:26:07.817Z,99674.66
2023-03-05T02:28:44.785Z,99667.22
2023-03-05T02:31:23.809Z,99675.47
2023-03-05T02:33:52.935Z,99651.22
2023-03-05T02:36:20.999Z,99673.38
2023-03-05T02:38:48.968Z,99663.78
2023-03-05T02:41:16.756Z,99656.31
2023-03-05T02:43:44.503Z,99649.53
2023-03-05T02:46:12.126Z,99654.91
2023-03-05T02:48:40.920Z,99651.66
2023-03-05T02:51:13.101Z,99660.06
2023-03-05T02:53:42.370Z,99646.16
2023-03-05T02:56:10.653Z,99656.56
2023-03-05T02:58:37.821Z,99652.81
2023-03-05T03:01:05.306Z,99672.81
2023-03-05T03:03:32.849Z,99665.63
2023-03-05T03:06:00.015Z,99641.56
2023-03-05T03:08:27.475Z,99649.97
2023-03-05T03:10:56.627Z,99659.91
2023-03-05T03:13:25.299Z,99646.63
2023-03-05T03:16:02.947Z,99646.28
2023-03-05T03:18:30.338Z,99653.41
2023-03-05T03:20:57.562Z,99632.38
2023-03-05T03:23:24.937Z,99622.50
2023-03-05T03:25:52.785Z,99610.38
2023-03-05T03:28:23.086Z,99637.66
2023-03-05T03:30:50.761Z,99637.66
2023-03-05T03:33:18.718Z,99635.06
2023-03-05T03:35:47.010Z,99655.72
2023-03-05T03:38:14.424Z,99652.00
2023-03-05T03:40:42.296Z,99649.88
2023-03-05T03:43:10.181Z,99647.81
2023-03-05T03:45:42.030Z,99642.56
2023-03-05T03:48:10.782Z,99633.59
2023-03-05T03:50:43.702Z,99636.38
2023-03-05T03:53:14.513Z,99635.94
2023-03-05T03:55:46.733Z,99626.84
2023-03-05T03:58:14.051Z,99619.69
2023-03-05T04:00:42.013Z,99630.94
2023-03-05T04:03:09.461Z,99651.06
2023-03-05T04:05:36.569Z,99648.25
2023-03-05T04:08:04.434Z,99631.25
2023-03-05T04:10:31.678Z,99634.66
2023-03-05T04:12:58.834Z,99636.19
2023-03-05T04:15:25.936Z,99640.28
2023-03-05T04:17:53.421Z,99641.69
2023-03-05T04:20:21.375Z,99638.41
2023-03-05T04:22:48.541Z,99658.91
2023-03-05T04:25:16.028Z,99642.38
2023-03-05T04:27:43.107Z,99629.63
2023-03-05T04:30:14.690Z,99636.66
2023-03-05T04:32:42.038Z,99644.16
2023-03-05T04:35:09.872Z,99643.94
2023-03-05T04:37:37.081Z,99644.06
2023-03-05T04:40:05.491Z,99663.75
2023-03-05T04:42:32.980Z,99648.28
2023-03-05T04:45:00.498Z,99667.91
2023-03-05T04:47:29.213Z,99627.03
2023-03-05T04:49:57.163Z,99665.63
2023-03-05T04:52:24.427Z,99657.06
2023-03-05T04:54:51.648Z,99647.28
2023-03-05T04:57:18.910Z,99654.06
2023-03-05T04:59:46.114Z,99633.34
2023-03-05T05:02:15.038Z,99637.38
2023-03-05T05:04:45.219Z,99615.63
2023-03-05T05:07:13.033Z,99676.13
2023-03-05T05:09:41.806Z,99669.13
2023-03-05T05:12:10.638Z,99663.16
2023-03-05T05:14:37.906Z,99674.75
2023-03-05T05:17:05.394Z,99677.91
2023-03-05T05:19:34.465Z,99690.47
2023-03-05T05:22:02.555Z,99688.75
2023-03-05T05:24:29.700Z,99680.50
2023-03-05T05:26:57.648Z,99683.97
2023-03-05T05:29:24.806Z,99680.63
2023-03-05T05:31:53.368Z,99695.38
2023-03-05T05:34:20.765Z,99666.63
2023-03-05T05:36:47.881Z,99671.81
2023-03-05T05:39:15.203Z,99672.72
2023-03-05T05:41:42.309Z,99666.00
2023-03-05T05:44:09.600Z,99701.09
2023-03-05T05:46:37.389Z,99716.16
2023-03-05T05:49:04.563Z,99696.63
2023-03-05T05:51:32.019Z,99708.13
2023-03-05T05:53:59.179Z,99716.16
2023-03-05T05:56:26.414Z,99699.78
2023-03-05T05:58:54.407Z,99679.41
2023-03-05T06:01:25.716Z,99691.03
2023-03-05T06:03:53.119Z,99714.03
2023-03-05T06:06:22.284Z,99699.19
2023-03-05T06:08:49.865Z,99711.22
2023-03-05T06:11:19.317Z,99707.78
2023-03-05T06:13:47.722Z,99688.56
2023-03-05T06:16:18.067Z,99703.25
2023-03-05T06:18:45.514Z,99664.09
2023-03-05T06:21:16.704Z,99697.34
2023-03-05T06:23:45.765Z,99714.31
2023-03-05T06:26:15.140Z,99714.59
2023-03-05T06:28:42.340Z,99701.25
2023-03-05T06:31:26.660Z,99723.19
2023-03-05T06:34:01.377Z,99728.25
2023-03-05T06:36:28.690Z,99728.03
2023-03-05T06:38:56.950Z,99698.47
2023-03-05T06:41:30.266Z,99694.94
2023-03-05T06:44:00.332Z,99706.13
2023-03-05T06:46:29.992Z,99725.41
2023-03-05T06:48:59.220Z,99714.13
2023-03-05T06:51:32.914Z,99701.09
2023-03-05T06:54:03.268Z,99701.38
2023-03-05T06:56:30.808Z,99703.63
2023-03-05T06:58:58.090Z,99700.47
2023-03-05T07:01:25.400Z,99707.06
2023-03-05T07:03:54.994Z,99704.97
2023-03-05T07:06:23.177Z,99698.75
2023-03-05T07:08:50.833Z,99717.16
2023-03-05T07:11:20.102Z,99721.69
2023-03-05T07:13:48.399Z,99721.75
2023-03-05T07:16:20.333Z,99718.03
2023-03-05T07:18:47.588Z,99721.25
2023-03-05T07:21:24.580Z,99709.88
2023-03-05T07:23:54.395Z,99713.56
2023-03-05T07:26:23.052Z,99719.56
2023-03-05T07:28:53.117Z,99673.78
2023-03-05T07:31:23.147Z,99719.88
2023-03-05T07:33:50.825Z,99715.59
2023-03-05T07:36:18.039Z,99710.91
2023-03-05T07:39:22.053Z,99740.53
2023-03-05T07:41:51.478Z,99718.22
2023-03-05T07:44:46.681Z,99713.72
2023-03-05T07:47:14.165Z,99740.47
2023-03-05T07:49:41.841Z,99729.22
2023-03-05T07:52:09.839Z,99739.56
2023-03-05T07:54:39.373Z,99724.72
2023-03-05T07:57:07.778Z,99706.38
2023-03-05T07:59:35.737Z,99736.09
2023-03-05T08:02:02.927Z,99708.09
2023-03-05T08:04:32.029Z,99698.63
2023-03-05T08:07:00.323Z,99740.19
2023-03-05T08:09:28.507Z,99729.16
2023-03-05T08:11:55.660Z,99719.03
2023-03-05T08:14:23.256Z,99705.84
2023-03-05T08:16:52.369Z,99734.34
2023-03-05T08:19:21.495Z,99709.13
2023-03-05T08:21:48.643Z,99745.66
2023-03-05T08:24:15.916Z,99725.22
2023-03-05T08:26:43.749Z,99748.69
2023-03-05T08:29:11.133Z,99715.84
2023-03-05T08:31:39.209Z,99731.66
2023-03-05T08:34:06.818Z,99729.63
2023-03-05T08:36:34.246Z,99708.91
2023-03-05T08:39:01.494Z,99743.94
2023-03-05T08:41:29.191Z,99739.06
2023-03-05T08:43:56.349Z,99724.56
2023-03-05T08:46:24.188Z,99749.56
2023-03-05T08:48:51.700Z,99722.69
2023-03-05T08:51:21.769Z,99738.50
2023-03-05T08:53:49.415Z,99736.59
2023-03-05T08:56:16.622Z,99734.63
2023-03-05T08:58:44.708Z,99753.22
2023-03-05T09:01:12.724Z,99748.47
2023-03-05T09:03:40.148Z,99744.03
2023-03-05T09:06:09.801Z,99743.53
2023-03-05T09:08:37.453Z,99732.25
2023-03-05T09:11:06.832Z,99738.28
2023-03-05T09:13:35.067Z,99741.81
2023-03-05T09:16:05.998Z,99732.84
2023-03-05T09:18:33.829Z,99719.22
2023-03-05T09:21:05.209Z,99750.25
2023-03-05T09:23:32.371Z,99756.81
2023-03-05T09:26:00.286Z,99743.69
2023-03-05T09:28:27.629Z,99744.50
2023-03-05T09:30:55.327Z,99706.56
2023-03-05T09:33:22.422Z,99741.97
2023-03-05T09:35:49.740Z,99740.16
2023-03-05T09:38:19.042Z,99742.69
2023-03-05T09:40:52.703Z,99743.50
2023-03-05T09:43:30.807Z,99721.50
2023-03-05T09:46:01.779Z,99707.47
2023-03-05T09:48:53.428Z,99719.34
2023-03-05T09:51:29.482Z,99695.88
2023-03-05T09:54:03.486Z,99709.81
2023-03-05T09:56:36.173Z,99732.16
2023-03-05T09:59:36.107Z,99733.22
2023-03-05T10:02:17.998Z,99720.47
2023-03-05T10:05:08.139Z,99720.53
2023-03-05T10:07:42.203Z,99707.38
2023-03-05T10:10:24.792Z,99703.75
2023-03-05T10:12:57.701Z,99722.09
2023-03-05T10:16:11.386Z,99719.53
2023-03-05T10:18:51.987Z,99694.19
2023-03-05T10:21:30.846Z,99719.84
2023-03-05T10:24:45.566Z,99687.34
2023-03-05T10:27:20.972Z,99695.63
2023-03-05T10:30:07.390Z,99691.69
2023-03-05T10:32:58.735Z,99695.72
2023-03-05T10:35:50.778Z,99700.16
2023-03-05T10:38:29.238Z,99709.72
2023-03-05T10:40:56.627Z,99669.66
2023-03-05T10:43:45.733Z,99686.38
2023-03-05T10:46:22.628Z,99662.84
2023-03-05T10:49:16.060Z,99688.44
2023-03-05T10:51:55.431Z,99695.00
2023-03-05T10:54:34.008Z,99691.56
2023-03-05T10:57:10.639Z,99703.44
2023-03-05T10:59:37.918Z,99685.25
2023-03-05T11:02:08.955Z,99682.94
2023-03-05T11:04:39.069Z,99713.31
2023-03-05T11:07:15.347Z,99697.75
2023-03-05T11:09:43.976Z,99685.72
2023-03-05T11:12:20.514Z,99699.31
2023-03-05T11:15:05.682Z,99699.50
2023-03-05T11:17:38.074Z,99707.25
2023-03-05T11:20:20.400Z,99697.25
2023-03-05T11:23:13.324Z,99689.72
2023-03-05T11:26:03.627Z,99690.63
2023-03-05T11:28:40.178Z,99691.75
2023-03-05T11:31:16.715Z,99687.53
2023-03-05T11:34:04.231Z,99689.72
2023-03-05T11:36:43.130Z,99679.78
2023-03-05T11:39:18.793Z,99679.78
2023-03-05T11:41:58.045Z,99687.41
2023-03-05T11:44:42.454Z,99673.31
2023-03-05T11:47:26.213Z,99687.47
2023-03-05T11:50:02.404Z,99682.19
2023-03-05T11:52:37.390Z,99701.13
2023-03-05T11:55:15.766Z,99692.69
2023-03-05T11:57:55.934Z,99697.22
2023-03-05T12:00:30.191Z,99665.66
2023-03-05T12:03:04.431Z,99707.09
2023-03-05T12:05:32.690Z,99703.50
2023-03-05T12:08:02.162Z,99711.41
2023-03-05T12:10:29.494Z,99686.41
2023-03-05T12:12:59.956Z,99698.72
2023-03-05T12:15:47.767Z,99697.81
2023-03-05T12:18:35.946Z,99674.75
2023-03-05T12:21:26.627Z,99699.16
2023-03-05T12:24:01.825Z,99697.31
2023-03-05T12:26:53.760Z,99700.88
2023-03-05T12:29:39.994Z,99681.69
2023-03-05T12:32:23.058Z,99704.59
2023-03-05T12:34:57.551Z,99702.84
2023-03-05T12:37:24.545Z,99702.25
2023-03-05T12:40:07.416Z,99690.81
2023-03-05T12:42:34.595Z,99698.56
2023-03-05T12:45:15.160Z,99698.22
2023-03-05T12:47:48.171Z,99687.06
2023-03-05T12:50:30.535Z,99698.00
2023-03-05T12:53:19.302Z,99701.97
2023-03-05T12:56:13.992Z,99677.59
2023-03-05T12:58:47.703Z,99700.66
2023-03-05T13:01:40.717Z,99706.97
2023-03-05T13:04:33.166Z,99694.63
2023-03-05T13:07:15.369Z,99695.53
2023-03-05T13:09:52.553Z,99700.38
2023-03-05T13:12:20.742Z,99687.59
2023-03-05T13:14:59.784Z,99687.31
2023-03-05T13:17:41.665Z,99691.19
2023-03-05T13:20:26.717Z,99685.22
2023-03-05T13:23:13.084Z,99691.13
2023-03-05T13:25:40.316Z,99678.00
2023-03-05T13:28:13.145Z,99686.75
2023-03-05T13:30:45.899Z,99696.50
2023-03-05T13:33:19.199Z,99681.00
2023-03-05T13:35:47.563Z,99693.31
2023-03-05T13:38:27.054Z,99685.88
2023-03-05T13:41:08.472Z,99673.41
2023-03-05T13:43:43.862Z,99688.72
2023-03-05T13:46:11.317Z,99682.13
2023-03-05T13:48:38.645Z,99692.94
2023-03-05T13:51:10.046Z,99681.94
2023-03-05T13:53:37.361Z,99700.00
2023-03-05T13:56:07.537Z,99670.50
2023-03-05T13:58:56.978Z,99681.94
2023-03-05T14:01:29.326Z,99698.41
2023-03-05T14:04:03.814Z,99686.13
2023-03-05T14:06:41.309Z,99662.41
2023-03-05T14:09:28.896Z,99668.69
2023-03-05T14:12:02.021Z,99676.25
2023-03-05T14:14:32.023Z,99691.19
2023-03-05T14:17:22.320Z,99679.38
2023-03-05T14:19:50.226Z,99658.41
2023-03-05T14:22:36.090Z,99671.47
2023-03-05T14:25:05.022Z,99664.69
2023-03-05T14:27:35.471Z,99686.81
2023-03-05T14:30:23.099Z,99691.84
2023-03-05T14:32:53.645Z,99683.94
2023-03-05T14:35:24.110Z,99692.81
2023-03-05T14:37:54.191Z,99694.09
2023-03-05T14:40:27.316Z,99675.03
2023-03-05T14:43:01.306Z,99691.16
2023-03-05T14:45:40.008Z,99695.88
2023-03-05T14:48:09.089Z,99709.94
2023-03-05T14:50:44.937Z,99687.94
2023-03-05T14:53:28.742Z,99699.56
2023-03-05T14:55:58.836Z,99686.72
2023-03-05T14:58:29.859Z,99687.78
2023-03-05T15:00:57.262Z,99686.63
2023-03-05T15:03:25.829Z,99698.16
2023-03-05T15:05:56.670Z,99704.28
2023-03-05T15:08:26.773Z,99695.22
2023-03-05T15:10:54.385Z,99698.81
2023-03-05T15:13:22.073Z,99682.69
2023-03-05T15:15:51.015Z,99697.00
2023-03-05T15:18:20.780Z,99709.16
2023-03-05T15:20:49.859Z,99693.22
2023-03-05T15:23:17.178Z,99684.09
2023-03-05T15:25:44.883Z,99689.19
2023-03-05T15:28:12.414Z,99695.38
2023-03-05T15:30:43.806Z,99702.78
2023-03-05T15:33:20.953Z,99691.50
2023-03-05T15:35:49.071Z,99713.34
2023-03-05T15:38:17.656Z,99705.72
2023-03-05T15:40:45.130Z,99715.59
2023-03-05T15:43:12.261Z,99712.78
2023-03-05T15:45:39.650Z,99690.41
2023-03-05T15:48:07.668Z,99726.63
2023-03-05T15:50:34.924Z,99726.28
2023-03-05T15:53:04.686Z,99725.13
2023-03-05T15:55:42.002Z,99716.41
2023-03-05T15:58:09.955Z,99733.34
2023-03-05T16:00:37.464Z,99746.53
2023-03-05T16:03:04.800Z,99744.41
2023-03-05T16:05:34.869Z,99741.75
2023-03-05T16:08:02.391Z,99734.88
2023-03-05T16:10:30.601Z,99750.28
2023-03-05T16:13:11.835Z,99752.53
2023-03-05T16:15:41.227Z,99753.63
2023-03-05T16:18:12.438Z,99760.09
2023-03-05T16:20:44.447Z,99755.81
2023-03-05T16:23:14.868Z,99768.97
2023-03-05T16:25:42.016Z,99751.72
2023-03-05T16:28:10.728Z,99769.03
2023-03-05T16:30:38.330Z,99762.94
2023-03-05T16:33:06.270Z,99753.19
2023-03-05T16:35:33.570Z,99756.00
2023-03-05T16:38:01.170Z,99772.09
2023-03-05T16:40:44.473Z,99768.34
2023-03-05T16:43:18.763Z,99756.22
2023-03-05T16:45:46.764Z,99767.56
2023-03-05T16:48:14.090Z,99782.50
2023-03-05T16:50:41.203Z,99780.03
2023-03-05T16:53:08.450Z,99770.50
2023-03-05T16:55:37.808Z,99769.13
2023-03-05T16:58:05.135Z,99761.72
2023-03-05T17:00:32.508Z,99769.28
2023-03-05T17:03:00.833Z,99741.22
2023-03-05T17:05:29.935Z,99757.78
2023-03-05T17:07:57.534Z,99756.16
2023-03-05T17:10:24.710Z,99770.53
2023-03-05T17:12:53.135Z,99758.56
2023-03-05T17:15:20.443Z,99769.28
2023-03-05T17:17:48.911Z,99756.91
2023-03-05T17:20:16.452Z,99761.56
2023-03-05T17:22:43.736Z,99786.31
2023-03-05T17:25:11.491Z,99785.34
2023-03-05T17:27:40.001Z,99769.38
2023-03-05T17:30:08.568Z,99773.00
2023-03-05T17:32:36.234Z,99771.84
2023-03-05T17:35:05.448Z,99786.19
2023-03-05T17:37:33.155Z,99769.63
2023-03-05T17:40:00.741Z,99752.38
2023-03-05T17:42:28.937Z,99764.97
2023-03-05T17:44:56.134Z,99761.25
2023-03-05T17:47:23.580Z,99759.81
2023-03-05T17:49:51.481Z,99758.72
2023-03-05T17:52:21.100Z,99765.13
2023-03-05T17:54:50.474Z,99756.41
2023-03-05T17:57:18.366Z,99777.59
2023-03-05T17:59:45.738Z,99773.50
2023-03-05T18:02:13.380Z,99766.47
2023-03-05T18:04:44.451Z,99764.78
2023-03-05T18:07:11.746Z,99765.31
2023-03-05T18:09:41.380Z,99773.94
2023-03-05T18:12:08.614Z,99776.88
2023-03-05T18:14:36.221Z,99768.78
2023-03-05T18:17:03.669Z,99757.06
2023-03-05T18:19:30.972Z,99771.31
2023-03-05T18:22:00.555Z,99778.75
2023-03-05T18:24:27.825Z,99792.91
2023-03-05T18:26:54.864Z,99787.28
2023-03-05T18:29:22.120Z,99805.47
2023-03-05T18:31:51.763Z,99807.50
2023-03-05T18:34:22.407Z,99781.34
2023-03-05T18:36:49.821Z,99784.06
2023-03-05T18:39:18.738Z,99794.59
2023-03-05T18:41:47.882Z,99779.34
2023-03-05T18:44:15.395Z,99783.81
2023-03-05T18:46:42.504Z,99782.34
2023-03-05T18:49:12.815Z,99794.19
2023-03-05T18:51:41.767Z,99800.13
2023-03-05T18:54:10.730Z,99806.72
2023-03-05T18:56:40.916Z,99776.88
2023-03-05T18:59:08.158Z,99801.19
2023-03-05T19:01:38.089Z,99779.34
2023-03-05T19:04:05.433Z,99802.09
2023-03-05T19:06:34.722Z,99801.13
2023-03-05T19:09:37.607Z,99796.16
2023-03-05T19:12:15.592Z,99784.38
2023-03-05T19:14:43.165Z,99803.81
2023-03-05T19:17:10.309Z,99774.19
2023-03-05T19:19:55.835Z,99801.59
2023-03-05T19:22:23.375Z,99816.25
2023-03-05T19:24:51.019Z,99810.47
2023-03-05T19:27:18.922Z,99820.97
2023-03-05T19:29:46.367Z,99814.16
2023-03-05T19:32:16.129Z,99804.47
2023-03-05T19:34:45.140Z,99809.78
2023-03-05T19:37:13.165Z,99804.34
2023-03-05T19:39:41.241Z,99786.66
2023-03-05T19:42:08.796Z,99790.78
2023-03-05T19:44:36.358Z,99783.22
2023-03-05T19:47:03.996Z,99793.66
2023-03-05T19:49:31.579Z,99780.97
2023-03-05T19:51:58.726Z,99787.72
2023-03-05T19:54:26.713Z,99792.69
2023-03-05T19:56:55.897Z,99789.91
2023-03-05T19:59:23.554Z,99784.31
2023-03-05T20:01:51.236Z,99766.66
2023-03-05T20:04:21.894Z,99767.34
2023-03-05T20:06:49.494Z,99758.69
2023-03-05T20:09:19.586Z,99736.72
2023-03-05T20:11:47.586Z,99745.41
2023-03-05T20:14:15.328Z,99741.81
2023-03-05T20:16:47.233Z,99769.19
2023-03-05T20:19:19.295Z,99759.03
2023-03-05T20:21:46.619Z,99744.22
2023-03-05T20:24:19.298Z,99734.63
2023-03-05T20:26:50.844Z,99752.31
2023-03-05T20:29:18.882Z,99749.34
2023-03-05T20:31:47.506Z,99753.84
2023-03-05T20:34:17.452Z,99746.09
2023-03-05T20:36:44.926Z,99748.03
2023-03-05T20:39:12.325Z,99737.81
2023-03-05T20:41:40.339Z,99740.59
2023-03-05T20:44:08.780Z,99733.97
2023-03-05T20:46:49.952Z,99734.50
2023-03-05T20:49:17.532Z,99740.28
2023-03-05T20:51:49.405Z,99741.13
2023-03-05T20:54:17.221Z,99737.00
2023-03-05T20:56:44.877Z,99730.63
2023-03-05T20:59:12.222Z,99716.28
2023-03-05T21:01:41.154Z,99710.16
2023-03-05T21:04:08.343Z,99731.13
2023-03-05T21:06:37.001Z,99712.94
2023-03-05T21:09:04.377Z,99723.13
2023-03-05T21:11:32.416Z,99703.84
2023-03-05T21:13:59.572Z,99693.63
2023-03-05T21:16:27.635Z,99712.06
2023-03-05T21:18:57.353Z,99712.13
2023-03-05T21:21:24.988Z,99711.84
2023-03-05T21:23:52.638Z,99711.31
2023-03-05T21:26:22.376Z,99677.69
2023-03-05T21:28:49.591Z,99704.66
2023-03-05T21:31:22.945Z,99678.72
2023-03-05T21:33:50.392Z,99679.28
2023-03-05T21:36:18.925Z,99694.72
2023-03-05T21:38:47.172Z,99702.47
2023-03-05T21:41:15.907Z,99687.84
2023-03-05T21:43:43.399Z,99692.50
2023-03-05T21:46:11.433Z,99685.88
2023-03-05T21:48:38.713Z,99687.53
2023-03-05T21:51:51.329Z,99695.50
2023-03-05T21:54:23.745Z,99684.22
2023-03-05T21:56:50.879Z,99673.22
2023-03-05T21:59:18.568Z,99685.88
2023-03-05T22:01:45.655Z,99691.41
2023-03-05T22:04:12.934Z,99687.22
2023-03-05T22:06:40.111Z,99690.81
2023-03-05T22:09:07.202Z,99686.09
2023-03-05T22:11:34.586Z,99693.25
2023-03-05T22:14:01.912Z,99691.88
2023-03-05T22:16:29.342Z,99692.44
2023-03-05T22:18:56.531Z,99708.75
2023-03-05T22:21:27.597Z,99704.06
2023-03-05T22:23:58.817Z,99687.56
2023-03-05T22:26:33.473Z,99707.16
2023-03-05T22:29:01.994Z,99707.38
2023-03-05T22:31:30.576Z,99699.69
2023-03-05T22:33:58.378Z,99695.25
2023-03-05T22:36:26.175Z,99688.66
2023-03-05T22:38:53.467Z,99675.41
2023-03-05T22:41:21.459Z,99702.94
2023-03-05T22:43:50.138Z,99678.41
2023-03-05T22:46:20.867Z,99680.63
2023-03-05T22:48:49.257Z,99692.19
2023-03-05T22:51:17.372Z,99677.34
2023-03-05T22:53:45.593Z,99670.22
2023-03-05T22:56:17.030Z,99661.41
2023-03-05T22:58:46.007Z,99645.66
2023-03-05T23:01:21.746Z,99646.81
2023-03-05T23:04:33.866Z,99631.38
2023-03-05T23:07:03.778Z,99646.00
2023-03-05T23:09:31.098Z,99650.13
2023-03-05T23:11:58.618Z,99631.69
2023-03-05T23:14:25.810Z,99654.56
2023-03-05T23:16:53.142Z,99630.88
2023-03-05T23:19:20.318Z,99627.00
2023-03-05T23:21:47.513Z,99625.91
2023-03-05T23:24:14.682Z,99617.34
2023-03-05T23:26:41.885Z,99611.28
2023-03-05T23:29:09.022Z,99617.63
2023-03-05T23:31:36.218Z,99631.41
2023-03-05T23:34:03.445Z,99627.56
2023-03-05T23:36:30.692Z,99631.97
2023-03-05T23:38:58.515Z,99609.38
2023-03-05T23:41:25.820Z,99615.97
2023-03-05T23:43:53.035Z,99606.06
2023-03-05T23:46:20.407Z,99599.47
2023-03-05T23:48:50.090Z,99613.53
2023-03-05T23:51:17.660Z,99598.09
2023-03-05T23:53:44.874Z,99605.81
2023-03-05T23:56:12.137Z,99614.03
2023-03-05T23:58:39.538Z,99624.78
